Alton, OH

5:56 AM EST on January 30, 2015 (GMT -0500)
Galloway Ridge | Change Station
CLOSE
Current Station
Personal Weather Station
Location: Galloway, OH
Elevation: 928 ft
Nearby Weather Stations

Elev 928 ft 39.96 °N, 83.16 °W | Updated 16 minutes ago

Overcast
Overcast
27.9 °F
Feels Like 21 °F
N
6.9
Wind Variable Wind from West
Gusts 6.9 mph

Today
High -- | Low -- °F
--% Chance of Precip.
Yesterday
High -- | Low -- °F
Precip. -- in
7:43 AM 5:49 PM
Waxing Gibbous, 82% visible
Pressure 30.21 in
Visibility 10.0 miles
Clouds Scattered Clouds 5000 ft
Overcast 6500 ft
Windchill 21 °F
Dew Point 21 °F
Humidity 76%
Rainfall 0.00 in
Snow Depth Not available.
UV 0 out of 12
Pollen .10 out of 12
Air Quality Not available.
Flu Activity Not available.
METAR KTZR 301035Z AUTO 32017G23KT 10SM SCT050 OVC065 M02/M06 A3021 RMK AO2 T10251063

More Conditions Fewer Conditions

Pressure 30.21 in
Visibility 10.0 miles
Clouds Scattered Clouds 5000 ft
Overcast 6500 ft
Windchill 21 °F
Dew Point 21 °F
Humidity 76%
Rainfall 0.00 in
Snow Depth Not available.
UV 0 out of 12
Pollen .10 out of 12
Air Quality Not available.
Flu Activity Not available.
METAR KTZR 301035Z AUTO 32017G23KT 10SM SCT050 OVC065 M02/M06 A3021 RMK AO2 T10251063

More Conditions Fewer Conditions

10-Day Weather Forecast

Almanac

Astronomy

Jan. 30, 2015 Rise Set
Actual Time
Civil Twilight
Nautical Twilight
Astronomical Twilight
Moon
Length of Visible Light
Length of Day
Tomorrow will be .
, % of the Moon is Illuminated

Today's Extremes

State Highs State Lows

Community

WunderPhotos

Upload Photos

1,791,736 photos uploaded!

WunderBlogs® & News

Nearby

Air Quality

  Air Quality AQ Index Pollutant
Not available.

Snow Depth

Station Depth Elevation

Earthquake Activity

City Distance Mag. Time & Date
Minimum magnitude displayed is 2.5.

Coastal Water Temperatures

Place Temperature

Nearby Weather Stations